Messwerte Corsicana

Temperatur

Temperatur
°C
1594641600 7.00 7.00 27
1594645200 8.00 8.00 28
1594648800 9.00 9.00 30
1594652400 10.00 10.00 32
1594656000 11.00 11.00 33
1594659600 12.00 12.00 34
1594663200 13.00 13.00 35
1594666800 14.00 14.00 36
1594670400 15.00 15.00 36
1594674000 16.00 16.00 36
1594677600 17.00 17.00 37
1594681200 18.00 18.00 37
1594684800 19.00 19.00 36
1594688400 20.00 20.00 33
1594692000 21.00 21.00 32
1594695600 22.00 22.00
1594699200 23.00 23.00 31
1594702800 0.00 0.00 30
1594706400 1.00 1.00 30
1594710000 2.00 2.00
1594713600 3.00 3.00
1594717200 4.00 4.00 27
1594720800 5.00 5.00
1594724400 6.00 6.00

Wir danken unserem Partner:

Aktuellste Messwerte

Wettercharakter
Wetter: sonnig
Temperatur
25 °C
Feuchtigkeit
90 %
Wind
15 km/hWindrichtung: Süd
Luftdruck
1013 hPa
Messzeit: 14. Juli 2020, 7.00Datenquelle: METAR

Weitere Messstationen in der Nähe

Messstation Temperatur Entfernung
Hillsboro 25 °C 66 km
Midlothian/Waxahachie 24 °C 67 km
Lancaster 25 °C 68 km
Palestine 25 °C 71 km
Terrell 24 °C 77 km
Mesquite 24 °C 81 km
Dallas 26 °C 85 km

Wind

Windrichtung Böen Mittelwind
° km/h km/h
1594641600 7.00 6.00 - 7.00 190° 10
1594645200 8.00 7.00 - 8.00 200° 15
1594648800 9.00 8.00 - 9.00 210° 20
1594652400 10.00 9.00 - 10.00 210° 20
1594656000 11.00 10.00 - 11.00 200° 10
1594659600 12.00 11.00 - 12.00 180° 10
1594663200 13.00 12.00 - 13.00 160° 20
1594666800 14.00 13.00 - 14.00 170° 20
1594670400 15.00 14.00 - 15.00 160° 20
1594674000 16.00 15.00 - 16.00 160° 20
1594677600 17.00 16.00 - 17.00 140° 20
1594681200 18.00 17.00 - 18.00 140° 20
1594684800 19.00 18.00 - 19.00 130° 15
1594688400 20.00 19.00 - 20.00 120° 20
1594692000 21.00 20.00 - 21.00 130° 15
1594695600 22.00 21.00 - 22.00
1594699200 23.00 22.00 - 23.00 150° 20
1594702800 0.00 23.00 - 0.00 150° 20
1594706400 1.00 0.00 - 1.00 170° 20
1594710000 2.00 1.00 - 2.00
1594713600 3.00 2.00 - 3.00
1594717200 4.00 3.00 - 4.00 180° 20
1594720800 5.00 4.00 - 5.00
1594724400 6.00 5.00 - 6.00

Ihre Wetterstation

Fehlt Ihre Wetterstation auf unserem Portal?

Schreiben Sie an network@meteonews.ch

Klima

Wann ist es am wärmsten? Wann regnet es am wenigsten? Unsere Klimadaten geben Auskunft.